Ana Sayfa
METAR-TAF:

METAR-TAF

Havaalanları :

Charles B. Wheeler Downtown Airport

Kansas City, Missouri, Amerika Birleşik Devletleri

Enlem: 39-07-15N, Boylam: 094-35-49W, yükseklik: 231 m

Güncel hava durumu gözlemi

Rapor saat 11:54 UTC de 49 dakika önce yapıldı.
Rüzgar doğu/kuzeydoğudan 4 kt
Sıcaklık 21°C
Nem 73%
Basınç 1020 hPa
Görüş mesafesi: 16.1 km
10000 ft yükseklikte çok bulutlu

METAR: KMKC 211154Z 06004KT 10SM OVC100 21/16 A3013 RMK AO2 SLP196 70006 T02060161 10222 20206 53007

Saat: 07:43 (12:43 UTC)

Tahmin

Rapor saat 11:20 UTC de 1 saat ve 23 dakika önce yapıldı.
Ayın 21'si saat 12 UTC'den ayın 22'si saat 12 UTC'ye kadar geçerli Tahmin
Rüzgar doğu/kuzeydoğudan 6 kt
Görüş mesafesi: 10 km
6000 ft yükseklikte çok bulutlu
Ayın 22'si saat 0400 UTC'den
Rüzgar değişken yönden 3 kt
Görüş mesafesi: 10 km
25000 ft yükseklikte parçalı çok bulutlu

TAF: KMKC 211120Z 2112/2212 06006KT P6SM OVC060 FM220400 VRB03KT P6SM BKN250

4.000'den fazla havaalanı için hava durumu gözlemleri ve tahminleri (METAR ve TAF raporları).

Kullanılabilir istasyonlar harita üzerinde sarı ve kırmızı noktalarla gösterilir.

İstasyonun adını görmek için fareyi noktanın üzerinde gezdirin.

Sonrasında hava gözlem ve tahminlerini görmek için tıklayın.

Haritayı değiştirmek için: yaklaştırmak için siyah artı işaretli yeşil düğmeye ve uzaklaştırmak için de eksi işaretli düğmeye hızla tıklayın; bitişik haritalar için yeşil okları kullanın.


METAR-TAF: